sensor_id;sensor_type;location;lat;lon;timestamp;pressure;altitude;pressure_sealevel;temperature;humidity
25610;BME280;13479;49.044;8.716;2024-03-29T05:01:15;97045.41;;;10.02;49.73
25610;BME280;13479;49.044;8.716;2024-03-29T05:03:40;97021.16;;;9.90;51.15
25610;BME280;13479;49.044;8.716;2024-03-29T05:06:05;97028.78;;;10.08;49.83
25610;BME280;13479;49.044;8.716;2024-03-29T05:08:31;97065.03;;;10.31;48.31
25610;BME280;13479;49.044;8.716;2024-03-29T05:10:56;97074.66;;;10.32;48.35
25610;BME280;13479;49.044;8.716;2024-03-29T05:13:22;97093.09;;;10.25;48.65
25610;BME280;13479;49.044;8.716;2024-03-29T05:15:47;97093.94;;;10.26;48.76
25610;BME280;13479;49.044;8.716;2024-03-29T05:18:13;97068.06;;;10.28;49.61
25610;BME280;13479;49.044;8.716;2024-03-29T05:20:38;97039.88;;;10.12;49.88
25610;BME280;13479;49.044;8.716;2024-03-29T05:23:06;97038.38;;;10.09;49.92
25610;BME280;13479;49.044;8.716;2024-03-29T05:25:31;97043.06;;;10.07;49.95
25610;BME280;13479;49.044;8.716;2024-03-29T05:27:56;97037.09;;;10.05;49.92
25610;BME280;13479;49.044;8.716;2024-03-29T05:30:21;97065.53;;;10.11;49.17
25610;BME280;13479;49.044;8.716;2024-03-29T05:32:49;97050.34;;;10.05;49.90
25610;BME280;13479;49.044;8.716;2024-03-29T05:35:14;97050.63;;;10.10;49.70
25610;BME280;13479;49.044;8.716;2024-03-29T05:37:39;97074.44;;;10.18;48.44
25610;BME280;13479;49.044;8.716;2024-03-29T05:40:05;97099.47;;;10.16;48.58
25610;BME280;13479;49.044;8.716;2024-03-29T05:42:32;97109.09;;;10.17;48.09
25610;BME280;13479;49.044;8.716;2024-03-29T05:44:58;97121.47;;;10.25;47.82
25610;BME280;13479;49.044;8.716;2024-03-29T05:47:23;97135.47;;;10.42;46.41
25610;BME280;13479;49.044;8.716;2024-03-29T05:49:49;97138.28;;;10.40;45.81
25610;BME280;13479;49.044;8.716;2024-03-29T05:52:15;97151.94;;;10.52;44.74
25610;BME280;13479;49.044;8.716;2024-03-29T05:54:42;97153.72;;;10.60;45.01
25610;BME280;13479;49.044;8.716;2024-03-29T05:57:07;97159.25;;;10.73;44.24
25610;BME280;13479;49.044;8.716;2024-03-29T05:59:34;97180.22;;;10.83;43.88
25610;BME280;13479;49.044;8.716;2024-03-29T06:01:59;97176.75;;;10.82;44.18
25610;BME280;13479;49.044;8.716;2024-03-29T06:04:24;97182.91;;;10.98;43.59
25610;BME280;13479;49.044;8.716;2024-03-29T06:06:57;97194.00;;;11.02;42.99
25610;BME280;13479;49.044;8.716;2024-03-29T06:09:24;97202.44;;;11.05;42.97
25610;BME280;13479;49.044;8.716;2024-03-29T06:11:49;97197.03;;;10.99;44.10
25610;BME280;13479;49.044;8.716;2024-03-29T06:14:14;97193.16;;;11.01;43.93
25610;BME280;13479;49.044;8.716;2024-03-29T06:16:58;97206.19;;;11.11;43.75
25610;BME280;13479;49.044;8.716;2024-03-29T06:19:42;97205.38;;;11.10;43.84
25610;BME280;13479;49.044;8.716;2024-03-29T06:22:07;97210.88;;;11.24;43.38
25610;BME280;13479;49.044;8.716;2024-03-29T06:24:34;97204.66;;;11.32;43.13
25610;BME280;13479;49.044;8.716;2024-03-29T06:27:00;97216.09;;;11.32;42.76
25610;BME280;13479;49.044;8.716;2024-03-29T06:29:25;97206.41;;;11.24;43.07
25610;BME280;13479;49.044;8.716;2024-03-29T06:31:50;97201.91;;;11.25;42.70
25610;BME280;13479;49.044;8.716;2024-03-29T06:34:15;97205.88;;;11.29;43.11
25610;BME280;13479;49.044;8.716;2024-03-29T06:36:41;97188.28;;;11.28;42.94
25610;BME280;13479;49.044;8.716;2024-03-29T06:39:06;97192.50;;;11.37;42.88
25610;BME280;13479;49.044;8.716;2024-03-29T06:41:32;97186.28;;;11.45;42.73
25610;BME280;13479;49.044;8.716;2024-03-29T06:43:57;97174.72;;;11.53;42.57
25610;BME280;13479;49.044;8.716;2024-03-29T06:46:23;97186.91;;;11.62;42.19
25610;BME280;13479;49.044;8.716;2024-03-29T06:48:48;97185.59;;;11.73;42.03
25610;BME280;13479;49.044;8.716;2024-03-29T06:51:14;97183.31;;;11.85;41.80
25610;BME280;13479;49.044;8.716;2024-03-29T06:53:39;97190.44;;;11.99;41.14
25610;BME280;13479;49.044;8.716;2024-03-29T06:56:05;97178.88;;;12.07;41.03
25610;BME280;13479;49.044;8.716;2024-03-29T06:58:30;97185.19;;;12.21;41.02
25610;BME280;13479;49.044;8.716;2024-03-29T07:00:56;97182.16;;;12.24;41.88
25610;BME280;13479;49.044;8.716;2024-03-29T07:03:23;97173.16;;;12.25;41.69
25610;BME280;13479;49.044;8.716;2024-03-29T07:05:49;97166.97;;;12.40;41.35
25610;BME280;13479;49.044;8.716;2024-03-29T07:08:16;97167.09;;;12.31;41.78
25610;BME280;13479;49.044;8.716;2024-03-29T07:10:41;97134.84;;;12.41;42.33
25610;BME280;13479;49.044;8.716;2024-03-29T07:13:07;97158.09;;;12.76;40.83
25610;BME280;13479;49.044;8.716;2024-03-29T07:15:32;97152.84;;;12.89;41.06
25610;BME280;13479;49.044;8.716;2024-03-29T07:17:58;97175.47;;;13.00;41.12
25610;BME280;13479;49.044;8.716;2024-03-29T07:20:25;97172.03;;;13.06;40.85
25610;BME280;13479;49.044;8.716;2024-03-29T07:22:51;97187.28;;;13.19;40.49
25610;BME280;13479;49.044;8.716;2024-03-29T07:25:16;97196.88;;;13.13;41.26
25610;BME280;13479;49.044;8.716;2024-03-29T07:27:41;97205.16;;;13.25;39.85
25610;BME280;13479;49.044;8.716;2024-03-29T07:30:07;97216.41;;;13.21;40.71
25610;BME280;13479;49.044;8.716;2024-03-29T07:32:36;97221.78;;;13.27;39.89
25610;BME280;13479;49.044;8.716;2024-03-29T07:35:01;97233.75;;;13.10;40.77
25610;BME280;13479;49.044;8.716;2024-03-29T07:37:28;97214.84;;;13.05;41.91
25610;BME280;13479;49.044;8.716;2024-03-29T07:39:53;97196.00;;;13.06;42.91
25610;BME280;13479;49.044;8.716;2024-03-29T07:42:18;97171.41;;;13.04;44.36
25610;BME280;13479;49.044;8.716;2024-03-29T07:44:44;97173.88;;;13.06;43.57
25610;BME280;13479;49.044;8.716;2024-03-29T07:47:10;97160.09;;;12.74;46.19
25610;BME280;13479;49.044;8.716;2024-03-29T07:49:38;97164.66;;;12.36;49.72
25610;BME280;13479;49.044;8.716;2024-03-29T07:52:03;97173.56;;;11.92;54.61
25610;BME280;13479;49.044;8.716;2024-03-29T07:54:31;97165.38;;;11.27;60.77
25610;BME280;13479;49.044;8.716;2024-03-29T07:56:56;97175.81;;;10.75;62.48
25610;BME280;13479;49.044;8.716;2024-03-29T07:59:21;97178.25;;;10.39;64.77
25610;BME280;13479;49.044;8.716;2024-03-29T08:01:47;97180.19;;;10.13;65.96
25610;BME280;13479;49.044;8.716;2024-03-29T08:04:12;97157.19;;;9.82;66.67
25610;BME280;13479;49.044;8.716;2024-03-29T08:06:37;97167.19;;;9.64;68.29
25610;BME280;13479;49.044;8.716;2024-03-29T08:09:02;97166.59;;;9.45;68.95
25610;BME280;13479;49.044;8.716;2024-03-29T08:11:28;97155.22;;;9.28;70.17
25610;BME280;13479;49.044;8.716;2024-03-29T08:13:53;97164.31;;;9.34;69.89
25610;BME280;13479;49.044;8.716;2024-03-29T08:16:18;97141.84;;;9.21;70.71
25610;BME280;13479;49.044;8.716;2024-03-29T08:18:45;97189.84;;;9.10;73.72
25610;BME280;13479;49.044;8.716;2024-03-29T08:21:11;97207.09;;;8.89;75.56
25610;BME280;13479;49.044;8.716;2024-03-29T08:23:41;97232.41;;;9.00;76.59
25610;BME280;13479;49.044;8.716;2024-03-29T08:26:06;97227.75;;;8.94;78.16
25610;BME280;13479;49.044;8.716;2024-03-29T08:28:32;97248.41;;;8.99;79.05
25610;BME280;13479;49.044;8.716;2024-03-29T08:31:01;97260.00;;;8.98;79.10
25610;BME280;13479;49.044;8.716;2024-03-29T08:33:27;97272.56;;;9.12;80.54
25610;BME280;13479;49.044;8.716;2024-03-29T08:35:53;97305.00;;;8.98;82.27
25610;BME280;13479;49.044;8.716;2024-03-29T08:38:18;97328.16;;;9.04;84.51
25610;BME280;13479;49.044;8.716;2024-03-29T08:40:44;97374.16;;;9.19;83.41
25610;BME280;13479;49.044;8.716;2024-03-29T08:43:11;97372.19;;;9.13;83.86
25610;BME280;13479;49.044;8.716;2024-03-29T08:45:37;97366.38;;;9.09;83.91
25610;BME280;13479;49.044;8.716;2024-03-29T08:48:06;97383.72;;;8.95;85.54
25610;BME280;13479;49.044;8.716;2024-03-29T08:50:32;97397.97;;;8.94;85.11
25610;BME280;13479;49.044;8.716;2024-03-29T08:52:58;97394.47;;;8.86;85.93
25610;BME280;13479;49.044;8.716;2024-03-29T08:55:23;97414.78;;;8.85;87.01
25610;BME280;13479;49.044;8.716;2024-03-29T08:57:48;97407.69;;;8.77;88.19
25610;BME280;13479;49.044;8.716;2024-03-29T09:00:14;97417.41;;;8.77;89.15
25610;BME280;13479;49.044;8.716;2024-03-29T09:02:39;97436.81;;;8.86;90.75
25610;BME280;13479;49.044;8.716;2024-03-29T09:05:05;97450.50;;;8.81;91.61
25610;BME280;13479;49.044;8.716;2024-03-29T09:07:30;97468.78;;;9.01;92.74
25610;BME280;13479;49.044;8.716;2024-03-29T09:09:55;97453.06;;;9.07;93.32
25610;BME280;13479;49.044;8.716;2024-03-29T09:12:21;97458.25;;;9.34;93.59
25610;BME280;13479;49.044;8.716;2024-03-29T09:14:46;97451.66;;;9.38;94.88
25610;BME280;13479;49.044;8.716;2024-03-29T09:17:11;97452.69;;;9.62;95.50
25610;BME280;13479;49.044;8.716;2024-03-29T09:19:37;97466.56;;;9.88;96.19
25610;BME280;13479;49.044;8.716;2024-03-29T09:22:02;97468.22;;;10.06;96.77
25610;BME280;13479;49.044;8.716;2024-03-29T09:24:27;97449.97;;;10.19;97.07
25610;BME280;13479;49.044;8.716;2024-03-29T09:26:53;97459.22;;;10.32;97.09
25610;BME280;13479;49.044;8.716;2024-03-29T09:29:18;97449.66;;;10.39;98.13
25610;BME280;13479;49.044;8.716;2024-03-29T09:31:46;97457.25;;;10.50;98.66
25610;BME280;13479;49.044;8.716;2024-03-29T09:34:11;97468.97;;;10.64;98.82
25610;BME280;13479;49.044;8.716;2024-03-29T09:36:37;97487.84;;;10.78;98.24
25610;BME280;13479;49.044;8.716;2024-03-29T09:39:03;97474.34;;;10.88;98.79
25610;BME280;13479;49.044;8.716;2024-03-29T09:41:31;97486.94;;;10.94;98.15
25610;BME280;13479;49.044;8.716;2024-03-29T09:43:59;97472.97;;;11.00;97.92
25610;BME280;13479;49.044;8.716;2024-03-29T09:46:27;97460.00;;;11.05;98.33
25610;BME280;13479;49.044;8.716;2024-03-29T09:48:54;97436.06;;;11.13;99.24
25610;BME280;13479;49.044;8.716;2024-03-29T09:51:21;97430.06;;;11.20;99.92
25610;BME280;13479;49.044;8.716;2024-03-29T09:53:47;97431.28;;;11.32;100.00
25610;BME280;13479;49.044;8.716;2024-03-29T09:56:13;97439.22;;;11.40;100.00
25610;BME280;13479;49.044;8.716;2024-03-29T09:58:39;97441.28;;;11.53;100.00
25610;BME280;13479;49.044;8.716;2024-03-29T10:01:06;97443.28;;;11.51;100.00
25610;BME280;13479;49.044;8.716;2024-03-29T10:03:35;97435.53;;;11.65;100.00
25610;BME280;13479;49.044;8.716;2024-03-29T10:06:01;97437.97;;;11.74;100.00
25610;BME280;13479;49.044;8.716;2024-03-29T10:08:29;97442.28;;;11.99;100.00
25610;BME280;13479;49.044;8.716;2024-03-29T10:10:56;97436.88;;;12.22;100.00
25610;BME280;13479;49.044;8.716;2024-03-29T10:13:21;97436.28;;;12.50;100.00
25610;BME280;13479;49.044;8.716;2024-03-29T10:15:49;97446.34;;;12.70;100.00
25610;BME280;13479;49.044;8.716;2024-03-29T10:18:16;97441.78;;;12.78;100.00
25610;BME280;13479;49.044;8.716;2024-03-29T10:20:44;97445.16;;;12.87;100.00
25610;BME280;13479;49.044;8.716;2024-03-29T10:23:10;97436.69;;;12.98;100.00
25610;BME280;13479;49.044;8.716;2024-03-29T10:25:35;97445.66;;;13.12;100.00
25610;BME280;13479;49.044;8.716;2024-03-29T10:28:00;97437.53;;;13.21;100.00
25610;BME280;13479;49.044;8.716;2024-03-29T10:30:29;97414.56;;;13.20;100.00
25610;BME280;13479;49.044;8.716;2024-03-29T10:32:57;97389.28;;;13.09;100.00
25610;BME280;13479;49.044;8.716;2024-03-29T10:35:25;97379.44;;;13.09;100.00
25610;BME280;13479;49.044;8.716;2024-03-29T10:37:52;97354.75;;;13.01;100.00
25610;BME280;13479;49.044;8.716;2024-03-29T10:40:18;97339.66;;;13.08;100.00
25610;BME280;13479;49.044;8.716;2024-03-29T10:42:46;97340.41;;;13.23;100.00
25610;BME280;13479;49.044;8.716;2024-03-29T10:45:14;97342.19;;;13.38;100.00
25610;BME280;13479;49.044;8.716;2024-03-29T10:47:41;97377.88;;;13.58;100.00
25610;BME280;13479;49.044;8.716;2024-03-29T10:50:11;97348.59;;;13.65;100.00
25610;BME280;13479;49.044;8.716;2024-03-29T10:52:39;97323.03;;;14.06;100.00
25610;BME280;13479;49.044;8.716;2024-03-29T10:55:05;97331.06;;;14.55;100.00
25610;BME280;13479;49.044;8.716;2024-03-29T10:57:33;97351.00;;;15.21;100.00
25610;BME280;13479;49.044;8.716;2024-03-29T11:00:17;97309.47;;;15.79;100.00
25610;BME280;13479;49.044;8.716;2024-03-29T11:03:09;97317.53;;;16.51;100.00
25610;BME280;13479;49.044;8.716;2024-03-29T11:05:41;97377.06;;;17.12;83.48
25610;BME280;13479;49.044;8.716;2024-03-29T11:08:09;97199.56;;;17.28;87.34
25610;BME280;13479;49.044;8.716;2024-03-29T11:10:44;97219.59;;;17.88;86.71
25610;BME280;13479;49.044;8.716;2024-03-29T11:13:33;97274.22;;;18.19;80.48
25610;BME280;13479;49.044;8.716;2024-03-29T11:16:00;97207.16;;;18.31;80.15
25610;BME280;13479;49.044;8.716;2024-03-29T11:18:27;97210.22;;;18.47;79.21
25610;BME280;13479;49.044;8.716;2024-03-29T11:20:53;97277.97;;;18.67;72.21
25610;BME280;13479;49.044;8.716;2024-03-29T11:23:20;97230.13;;;18.46;70.95
25610;BME280;13479;49.044;8.716;2024-03-29T11:25:49;97227.50;;;18.20;68.59
25610;BME280;13479;49.044;8.716;2024-03-29T11:28:23;97169.78;;;17.74;70.59
25610;BME280;13479;49.044;8.716;2024-03-29T11:30:50;97172.56;;;17.49;71.05
25610;BME280;13479;49.044;8.716;2024-03-29T11:38:46;97088.25;;;16.50;73.20
25610;BME280;13479;49.044;8.716;2024-03-29T11:41:14;97053.69;;;16.16;75.42
25610;BME280;13479;49.044;8.716;2024-03-29T11:43:39;97058.75;;;15.99;77.15
25610;BME280;13479;49.044;8.716;2024-03-29T11:46:07;97089.03;;;15.93;78.25
25610;BME280;13479;49.044;8.716;2024-03-29T11:48:33;97104.88;;;15.95;79.20
25610;BME280;13479;49.044;8.716;2024-03-29T11:51:00;97136.16;;;15.94;78.28
25610;BME280;13479;49.044;8.716;2024-03-29T11:53:26;97122.22;;;15.79;79.68
25610;BME280;13479;49.044;8.716;2024-03-29T11:55:53;97161.97;;;15.68;78.73
25610;BME280;13479;49.044;8.716;2024-03-29T11:58:23;97151.47;;;15.60;79.50
25610;BME280;13479;49.044;8.716;2024-03-29T12:00:50;97193.06;;;15.49;78.35
25610;BME280;13479;49.044;8.716;2024-03-29T12:03:16;97234.66;;;15.25;77.82
25610;BME280;13479;49.044;8.716;2024-03-29T12:05:43;97264.66;;;15.07;76.61
25610;BME280;13479;49.044;8.716;2024-03-29T12:08:08;97261.56;;;14.90;77.30
25610;BME280;13479;49.044;8.716;2024-03-29T12:10:35;97255.59;;;14.88;78.17
25610;BME280;13479;49.044;8.716;2024-03-29T12:13:01;97270.78;;;14.94;77.41
25610;BME280;13479;49.044;8.716;2024-03-29T12:15:30;97292.59;;;15.04;76.35
25610;BME280;13479;49.044;8.716;2024-03-29T12:17:57;97332.47;;;14.99;75.61
25610;BME280;13479;49.044;8.716;2024-03-29T12:20:22;97333.47;;;14.85;75.47
25610;BME280;13479;49.044;8.716;2024-03-29T12:22:48;97301.34;;;14.71;76.05
25610;BME280;13479;49.044;8.716;2024-03-29T12:25:13;97215.63;;;14.52;78.79
25610;BME280;13479;49.044;8.716;2024-03-29T12:27:39;97198.13;;;14.30;79.34
25610;BME280;13479;49.044;8.716;2024-03-29T12:30:05;97218.19;;;14.12;80.88
25610;BME280;13479;49.044;8.716;2024-03-29T12:32:31;97207.03;;;14.02;80.83
25610;BME280;13479;49.044;8.716;2024-03-29T12:35:10;97224.22;;;13.86;83.44
25610;BME280;13479;49.044;8.716;2024-03-29T12:37:36;97248.25;;;13.57;85.08
25610;BME280;13479;49.044;8.716;2024-03-29T12:40:03;97265.41;;;13.48;85.96
25610;BME280;13479;49.044;8.716;2024-03-29T12:42:39;97281.09;;;13.36;88.53
25610;BME280;13479;49.044;8.716;2024-03-29T12:45:05;97307.44;;;13.24;90.88
25610;BME280;13479;49.044;8.716;2024-03-29T12:47:32;97331.41;;;13.24;92.49
25610;BME280;13479;49.044;8.716;2024-03-29T12:49:59;97337.06;;;13.15;92.55
25610;BME280;13479;49.044;8.716;2024-03-29T12:52:25;97336.09;;;13.01;92.63
25610;BME280;13479;49.044;8.716;2024-03-29T12:54:50;97330.81;;;12.86;92.99
25610;BME280;13479;49.044;8.716;2024-03-29T12:57:16;97324.28;;;12.66;95.99
25610;BME280;13479;49.044;8.716;2024-03-29T12:59:41;97354.66;;;12.57;96.92
25610;BME280;13479;49.044;8.716;2024-03-29T13:02:07;97367.59;;;12.60;99.22
25610;BME280;13479;49.044;8.716;2024-03-29T13:04:33;97383.47;;;12.69;100.00
25610;BME280;13479;49.044;8.716;2024-03-29T13:06:58;97380.72;;;12.77;100.00
25610;BME280;13479;49.044;8.716;2024-03-29T13:09:23;97390.16;;;12.79;100.00
25610;BME280;13479;49.044;8.716;2024-03-29T13:11:48;97419.63;;;12.93;100.00
25610;BME280;13479;49.044;8.716;2024-03-29T13:14:14;97402.28;;;12.82;99.38
25610;BME280;13479;49.044;8.716;2024-03-29T13:16:39;97404.13;;;12.81;98.75
25610;BME280;13479;49.044;8.716;2024-03-29T13:19:04;97396.06;;;12.75;100.00
25610;BME280;13479;49.044;8.716;2024-03-29T13:21:30;97392.84;;;12.79;100.00
25610;BME280;13479;49.044;8.716;2024-03-29T13:23:56;97454.59;;;13.05;97.91
25610;BME280;13479;49.044;8.716;2024-03-29T13:26:21;97460.56;;;13.07;97.17
25610;BME280;13479;49.044;8.716;2024-03-29T13:28:46;97400.66;;;13.03;98.39
25610;BME280;13479;49.044;8.716;2024-03-29T13:31:11;97348.91;;;13.12;99.76
25610;BME280;13479;49.044;8.716;2024-03-29T13:33:37;97350.47;;;13.21;99.71
25610;BME280;13479;49.044;8.716;2024-03-29T13:36:03;97409.69;;;13.23;98.79
25610;BME280;13479;49.044;8.716;2024-03-29T13:38:28;97435.34;;;13.39;97.90
25610;BME280;13479;49.044;8.716;2024-03-29T13:40:54;97432.19;;;13.57;89.44
25610;BME280;13479;49.044;8.716;2024-03-29T13:43:21;97352.38;;;13.49;89.46
25610;BME280;13479;49.044;8.716;2024-03-29T13:45:48;97332.19;;;13.40;90.65
25610;BME280;13479;49.044;8.716;2024-03-29T13:48:14;97329.75;;;13.23;92.03
25610;BME280;13479;49.044;8.716;2024-03-29T13:50:39;97302.78;;;13.33;94.74
25610;BME280;13479;49.044;8.716;2024-03-29T13:53:04;97414.59;;;13.56;87.96
25610;BME280;13479;49.044;8.716;2024-03-29T13:55:29;97382.97;;;13.53;87.30
25610;BME280;13479;49.044;8.716;2024-03-29T13:57:55;97360.00;;;13.52;88.12
25610;BME280;13479;49.044;8.716;2024-03-29T14:00:21;97363.00;;;13.71;87.82
25610;BME280;13479;49.044;8.716;2024-03-29T14:02:46;97409.94;;;13.94;85.52
25610;BME280;13479;49.044;8.716;2024-03-29T14:05:11;97357.41;;;13.87;86.42
25610;BME280;13479;49.044;8.716;2024-03-29T14:07:38;97294.66;;;13.98;88.24
25610;BME280;13479;49.044;8.716;2024-03-29T14:10:03;97338.72;;;14.23;86.20
25610;BME280;13479;49.044;8.716;2024-03-29T14:12:31;97409.88;;;14.44;82.37
25610;BME280;13479;49.044;8.716;2024-03-29T14:14:56;97355.03;;;14.41;83.67
25610;BME280;13479;49.044;8.716;2024-03-29T14:17:22;97285.44;;;14.49;86.08
25610;BME280;13479;49.044;8.716;2024-03-29T14:19:47;97262.78;;;14.80;86.60
25610;BME280;13479;49.044;8.716;2024-03-29T14:22:14;97355.09;;;15.10;83.42
25610;BME280;13479;49.044;8.716;2024-03-29T14:24:41;97351.66;;;15.36;82.97
25610;BME280;13479;49.044;8.716;2024-03-29T14:27:07;97306.00;;;15.51;83.94
25610;BME280;13479;49.044;8.716;2024-03-29T14:29:33;97334.97;;;15.81;82.71
25610;BME280;13479;49.044;8.716;2024-03-29T14:31:59;97358.25;;;15.94;80.69
25610;BME280;13479;49.044;8.716;2024-03-29T14:34:24;97403.97;;;16.06;77.40
25610;BME280;13479;49.044;8.716;2024-03-29T14:36:50;97376.97;;;16.08;76.27
25610;BME280;13479;49.044;8.716;2024-03-29T14:39:16;97343.22;;;16.06;75.83
25610;BME280;13479;49.044;8.716;2024-03-29T14:41:43;97318.72;;;16.10;75.98
25610;BME280;13479;49.044;8.716;2024-03-29T14:44:11;97323.66;;;16.13;75.42
25610;BME280;13479;49.044;8.716;2024-03-29T14:46:36;97325.50;;;16.12;75.55
25610;BME280;13479;49.044;8.716;2024-03-29T14:49:02;97328.53;;;16.23;75.05
25610;BME280;13479;49.044;8.716;2024-03-29T14:51:31;97306.94;;;16.24;75.67
25610;BME280;13479;49.044;8.716;2024-03-29T14:53:57;97256.06;;;16.24;76.64
25610;BME280;13479;49.044;8.716;2024-03-29T14:56:22;97217.56;;;16.25;76.81
25610;BME280;13479;49.044;8.716;2024-03-29T14:58:48;97257.50;;;16.27;75.69
25610;BME280;13479;49.044;8.716;2024-03-29T15:01:13;97319.69;;;16.29;74.67
25610;BME280;13479;49.044;8.716;2024-03-29T15:03:38;97296.25;;;16.17;75.21
25610;BME280;13479;49.044;8.716;2024-03-29T15:06:04;97270.53;;;16.10;75.76
25610;BME280;13479;49.044;8.716;2024-03-29T15:08:29;97308.41;;;16.13;73.78
25610;BME280;13479;49.044;8.716;2024-03-29T15:10:59;97337.03;;;16.13;73.14
25610;BME280;13479;49.044;8.716;2024-03-29T15:13:24;97305.75;;;16.06;73.34
25610;BME280;13479;49.044;8.716;2024-03-29T15:15:56;97310.06;;;16.08;72.51
25610;BME280;13479;49.044;8.716;2024-03-29T15:18:22;97341.16;;;16.09;70.86
25610;BME280;13479;49.044;8.716;2024-03-29T15:21:01;97274.28;;;15.82;72.49
25610;BME280;13479;49.044;8.716;2024-03-29T15:23:28;97249.16;;;15.83;72.06
25610;BME280;13479;49.044;8.716;2024-03-29T15:25:55;97211.31;;;15.72;73.31
25610;BME280;13479;49.044;8.716;2024-03-29T15:28:23;97154.78;;;15.62;74.21
25610;BME280;13479;49.044;8.716;2024-03-29T15:31:18;97092.66;;;15.60;75.13
25610;BME280;13479;49.044;8.716;2024-03-29T15:33:52;97136.03;;;15.69;74.16
25610;BME280;13479;49.044;8.716;2024-03-29T15:36:18;97162.19;;;15.60;74.42
25610;BME280;13479;49.044;8.716;2024-03-29T15:38:45;97140.63;;;15.48;75.18
25610;BME280;13479;49.044;8.716;2024-03-29T15:41:11;97169.81;;;15.50;73.43
25610;BME280;13479;49.044;8.716;2024-03-29T15:43:37;97247.19;;;15.44;73.29
25610;BME280;13479;49.044;8.716;2024-03-29T15:46:03;97278.66;;;15.42;72.75
25610;BME280;13479;49.044;8.716;2024-03-29T15:48:29;97271.66;;;15.35;73.09
25610;BME280;13479;49.044;8.716;2024-03-29T15:50:54;97191.06;;;15.18;75.43
25610;BME280;13479;49.044;8.716;2024-03-29T15:53:20;97219.44;;;15.32;73.27
25610;BME280;13479;49.044;8.716;2024-03-29T15:55:46;97287.28;;;15.31;72.23
25610;BME280;13479;49.044;8.716;2024-03-29T15:58:12;97247.00;;;15.12;73.94
25610;BME280;13479;49.044;8.716;2024-03-29T16:00:37;97195.59;;;15.24;73.70
25610;BME280;13479;49.044;8.716;2024-03-29T16:03:11;97212.44;;;15.31;72.97
25610;BME280;13479;49.044;8.716;2024-03-29T16:05:39;97204.63;;;15.29;73.44
25610;BME280;13479;49.044;8.716;2024-03-29T16:08:04;97167.63;;;15.26;73.98
25610;BME280;13479;49.044;8.716;2024-03-29T16:10:30;97147.03;;;15.20;74.86
25610;BME280;13479;49.044;8.716;2024-03-29T16:12:55;97151.19;;;15.23;74.63
25610;BME280;13479;49.044;8.716;2024-03-29T16:15:23;97162.91;;;15.15;75.11
25610;BME280;13479;49.044;8.716;2024-03-29T16:17:48;97157.78;;;15.13;75.24
25610;BME280;13479;49.044;8.716;2024-03-29T16:20:13;97108.84;;;14.93;77.01
25610;BME280;13479;49.044;8.716;2024-03-29T16:22:39;97104.34;;;14.87;76.80
25610;BME280;13479;49.044;8.716;2024-03-29T16:25:04;97111.97;;;14.90;77.03
25610;BME280;13479;49.044;8.716;2024-03-29T16:27:30;97107.25;;;14.72;77.72
25610;BME280;13479;49.044;8.716;2024-03-29T16:29:55;97099.81;;;14.54;80.11
25610;BME280;13479;49.044;8.716;2024-03-29T16:32:20;97138.84;;;14.55;80.20
25610;BME280;13479;49.044;8.716;2024-03-29T16:34:47;97163.91;;;14.60;79.66
25610;BME280;13479;49.044;8.716;2024-03-29T16:37:13;97170.47;;;14.58;80.04
25610;BME280;13479;49.044;8.716;2024-03-29T16:39:38;97162.25;;;14.52;80.35
25610;BME280;13479;49.044;8.716;2024-03-29T16:42:03;97159.75;;;14.38;81.08
25610;BME280;13479;49.044;8.716;2024-03-29T16:44:29;97167.50;;;14.26;82.43
25610;BME280;13479;49.044;8.716;2024-03-29T16:46:55;97163.81;;;14.27;82.91
25610;BME280;13479;49.044;8.716;2024-03-29T16:49:20;97181.03;;;14.17;83.64
25610;BME280;13479;49.044;8.716;2024-03-29T16:51:45;97200.78;;;14.30;83.30
25610;BME280;13479;49.044;8.716;2024-03-29T16:54:11;97206.31;;;14.21;84.22
25610;BME280;13479;49.044;8.716;2024-03-29T16:56:36;97199.91;;;14.09;85.02
25610;BME280;13479;49.044;8.716;2024-03-29T16:59:01;97212.19;;;14.03;85.68
25610;BME280;13479;49.044;8.716;2024-03-29T17:01:28;97217.47;;;13.90;86.71
25610;BME280;13479;49.044;8.716;2024-03-29T17:03:54;97227.25;;;13.76;88.00
25610;BME280;13479;49.044;8.716;2024-03-29T17:06:19;97249.00;;;13.80;88.35
25610;BME280;13479;49.044;8.716;2024-03-29T17:08:44;97235.41;;;13.68;89.19
25610;BME280;13479;49.044;8.716;2024-03-29T17:11:10;97255.16;;;13.80;89.01
25610;BME280;13479;49.044;8.716;2024-03-29T17:13:35;97270.31;;;13.73;89.08
25610;BME280;13479;49.044;8.716;2024-03-29T17:16:00;97254.91;;;13.68;89.79
25610;BME280;13479;49.044;8.716;2024-03-29T17:18:27;97276.66;;;13.72;89.87
25610;BME280;13479;49.044;8.716;2024-03-29T17:20:52;97268.59;;;13.65;90.09
25610;BME280;13479;49.044;8.716;2024-03-29T17:23:18;97263.09;;;13.67;90.28
25610;BME280;13479;49.044;8.716;2024-03-29T17:25:43;97275.59;;;13.66;90.23
25610;BME280;13479;49.044;8.716;2024-03-29T17:28:08;97266.31;;;13.55;91.09
25610;BME280;13479;49.044;8.716;2024-03-29T17:30:34;97272.03;;;13.52;91.78
25610;BME280;13479;49.044;8.716;2024-03-29T17:32:59;97264.78;;;13.46;92.18
25610;BME280;13479;49.044;8.716;2024-03-29T17:35:25;97268.72;;;13.50;92.01
25610;BME280;13479;49.044;8.716;2024-03-29T17:37:50;97278.56;;;13.50;92.15
25610;BME280;13479;49.044;8.716;2024-03-29T17:40:16;97267.56;;;13.38;92.82
25610;BME280;13479;49.044;8.716;2024-03-29T17:42:41;97287.53;;;13.42;92.99
25610;BME280;13479;49.044;8.716;2024-03-29T17:45:06;97295.19;;;13.30;93.67
25610;BME280;13479;49.044;8.716;2024-03-29T17:47:33;97306.41;;;13.25;94.55
25610;BME280;13479;49.044;8.716;2024-03-29T17:49:58;97313.34;;;13.20;95.15
25610;BME280;13479;49.044;8.716;2024-03-29T17:52:23;97306.81;;;13.22;95.17
25610;BME280;13479;49.044;8.716;2024-03-29T17:54:48;97306.19;;;13.20;95.15
25610;BME280;13479;49.044;8.716;2024-03-29T17:57:13;97300.41;;;13.17;95.27
25610;BME280;13479;49.044;8.716;2024-03-29T17:59:39;97296.72;;;13.18;95.18
25610;BME280;13479;49.044;8.716;2024-03-29T18:02:04;97294.50;;;13.21;95.27